sensor_id;sensor_type;location;lat;lon;timestamp;pressure;altitude;pressure_sealevel;temperature;humidity
68141;BME280;54941;52.220;104.306;2023-03-20T00:01:18;94669.19;;;-5.80;79.87
68141;BME280;54941;52.220;104.306;2023-03-20T00:03:45;94665.16;;;-5.65;78.55
68141;BME280;54941;52.220;104.306;2023-03-20T00:06:16;94675.22;;;-5.91;79.04
68141;BME280;54941;52.220;104.306;2023-03-20T00:08:43;94676.66;;;-5.63;79.65
68141;BME280;54941;52.220;104.306;2023-03-20T00:11:24;94678.47;;;-5.47;78.93
68141;BME280;54941;52.220;104.306;2023-03-20T00:13:54;94688.09;;;-5.60;78.06
68141;BME280;54941;52.220;104.306;2023-03-20T00:16:22;94683.72;;;-5.32;78.22
68141;BME280;54941;52.220;104.306;2023-03-20T00:18:49;94690.91;;;-5.04;78.62
68141;BME280;54941;52.220;104.306;2023-03-20T00:21:17;94694.44;;;-4.80;76.03
68141;BME280;54941;52.220;104.306;2023-03-20T00:23:46;94687.19;;;-4.83;75.36
68141;BME280;54941;52.220;104.306;2023-03-20T00:26:13;94690.97;;;-4.79;75.17
68141;BME280;54941;52.220;104.306;2023-03-20T00:28:42;94696.97;;;-4.64;75.45
68141;BME280;54941;52.220;104.306;2023-03-20T00:31:21;94701.69;;;-4.69;74.67
68141;BME280;54941;52.220;104.306;2023-03-20T00:33:49;94702.75;;;-4.72;74.17
68141;BME280;54941;52.220;104.306;2023-03-20T00:36:15;94712.59;;;-4.20;72.86
68141;BME280;54941;52.220;104.306;2023-03-20T00:38:41;94717.63;;;-4.20;71.50
68141;BME280;54941;52.220;104.306;2023-03-20T00:41:19;94700.66;;;-4.26;72.50
68141;BME280;54941;52.220;104.306;2023-03-20T00:43:49;94714.38;;;-3.88;71.13
68141;BME280;54941;52.220;104.306;2023-03-20T00:46:19;94716.78;;;-2.15;67.60
68141;BME280;54941;52.220;104.306;2023-03-20T00:48:45;94703.91;;;-0.01;59.76
68141;BME280;54941;52.220;104.306;2023-03-20T00:51:12;94714.41;;;1.42;54.17
68141;BME280;54941;52.220;104.306;2023-03-20T00:53:39;94708.81;;;1.60;52.10
68141;BME280;54941;52.220;104.306;2023-03-20T00:56:06;94706.22;;;2.66;49.07
68141;BME280;54941;52.220;104.306;2023-03-20T00:58:33;94720.50;;;2.61;48.68
68141;BME280;54941;52.220;104.306;2023-03-20T01:01:00;94713.78;;;3.12;46.73
68141;BME280;54941;52.220;104.306;2023-03-20T01:03:28;94723.69;;;3.47;45.59
68141;BME280;54941;52.220;104.306;2023-03-20T01:05:54;94720.28;;;4.35;43.36
68141;BME280;54941;52.220;104.306;2023-03-20T01:08:22;94730.44;;;4.91;41.53
68141;BME280;54941;52.220;104.306;2023-03-20T01:10:54;94720.72;;;5.43;40.58
68141;BME280;54941;52.220;104.306;2023-03-20T01:13:23;94730.44;;;6.30;38.41
68141;BME280;54941;52.220;104.306;2023-03-20T01:15:53;94730.56;;;5.57;41.01
68141;BME280;54941;52.220;104.306;2023-03-20T01:18:20;94734.94;;;6.05;39.90
68141;BME280;54941;52.220;104.306;2023-03-20T01:20:49;94723.88;;;5.20;40.30
68141;BME280;54941;52.220;104.306;2023-03-20T01:23:16;94724.03;;;4.82;41.06
68141;BME280;54941;52.220;104.306;2023-03-20T01:25:43;94718.78;;;4.77;41.57
68141;BME280;54941;52.220;104.306;2023-03-20T01:28:14;94719.44;;;4.41;42.27
68141;BME280;54941;52.220;104.306;2023-03-20T01:30:41;94730.00;;;4.20;43.29
68141;BME280;54941;52.220;104.306;2023-03-20T01:33:13;94736.25;;;4.80;42.45
68141;BME280;54941;52.220;104.306;2023-03-20T01:35:40;94735.56;;;3.66;44.13
68141;BME280;54941;52.220;104.306;2023-03-20T01:38:11;94737.41;;;4.21;43.63
68141;BME280;54941;52.220;104.306;2023-03-20T01:40:48;94738.84;;;4.17;42.81
68141;BME280;54941;52.220;104.306;2023-03-20T01:43:18;94737.97;;;3.99;43.64
68141;BME280;54941;52.220;104.306;2023-03-20T01:45:53;94742.47;;;5.27;41.35
68141;BME280;54941;52.220;104.306;2023-03-20T01:48:23;94742.38;;;4.97;41.39
68141;BME280;54941;52.220;104.306;2023-03-20T01:50:50;94743.03;;;5.11;41.15
68141;BME280;54941;52.220;104.306;2023-03-20T01:53:20;94731.97;;;4.49;42.50
68141;BME280;54941;52.220;104.306;2023-03-20T01:55:49;94738.00;;;6.25;39.16
68141;BME280;54941;52.220;104.306;2023-03-20T01:58:18;94733.81;;;5.64;39.08
68141;BME280;54941;52.220;104.306;2023-03-20T02:00:46;94730.03;;;6.03;38.83
68141;BME280;54941;52.220;104.306;2023-03-20T02:03:13;94731.28;;;5.46;39.23
68141;BME280;54941;52.220;104.306;2023-03-20T02:05:41;94730.69;;;5.62;38.47
68141;BME280;54941;52.220;104.306;2023-03-20T02:08:16;94734.44;;;4.56;40.27
68141;BME280;54941;52.220;104.306;2023-03-20T02:10:46;94734.84;;;4.84;40.15
68141;BME280;54941;52.220;104.306;2023-03-20T02:13:15;94747.94;;;5.49;39.22
68141;BME280;54941;52.220;104.306;2023-03-20T02:15:57;94784.38;;;6.17;38.44
68141;BME280;54941;52.220;104.306;2023-03-20T02:18:25;94817.44;;;6.60;36.41
68141;BME280;54941;52.220;104.306;2023-03-20T02:26:53;94842.94;;;3.69;42.05
68141;BME280;54941;52.220;104.306;2023-03-20T02:29:41;94831.13;;;4.32;41.84
68141;BME280;54941;52.220;104.306;2023-03-20T02:32:38;94837.63;;;6.68;35.92
68141;BME280;54941;52.220;104.306;2023-03-20T02:35:46;94840.56;;;6.23;37.08
68141;BME280;54941;52.220;104.306;2023-03-20T02:38:42;94858.84;;;6.57;36.53
68141;BME280;54941;52.220;104.306;2023-03-20T02:41:21;94857.75;;;6.64;36.77
68141;BME280;54941;52.220;104.306;2023-03-20T02:43:57;94863.75;;;5.67;38.53
68141;BME280;54941;52.220;104.306;2023-03-20T02:46:33;94887.69;;;7.81;35.27
68141;BME280;54941;52.220;104.306;2023-03-20T02:49:09;94886.03;;;8.50;34.62
68141;BME280;54941;52.220;104.306;2023-03-20T02:51:40;94889.50;;;9.46;32.57
68141;BME280;54941;52.220;104.306;2023-03-20T02:54:22;94899.75;;;9.29;32.05
68141;BME280;54941;52.220;104.306;2023-03-20T02:56:58;94899.53;;;9.81;31.86
68141;BME280;54941;52.220;104.306;2023-03-20T02:59:29;94908.81;;;10.37;30.75
68141;BME280;54941;52.220;104.306;2023-03-20T03:02:01;94927.78;;;9.14;31.67
68141;BME280;54941;52.220;104.306;2023-03-20T03:04:32;94925.78;;;8.48;32.74
68141;BME280;54941;52.220;104.306;2023-03-20T03:07:01;94935.25;;;8.59;32.68
68141;BME280;54941;52.220;104.306;2023-03-20T03:09:32;94948.75;;;7.61;34.54
68141;BME280;54941;52.220;104.306;2023-03-20T03:12:03;94937.56;;;9.95;31.21
68141;BME280;54941;52.220;104.306;2023-03-20T03:14:35;94949.03;;;9.09;32.09
68141;BME280;54941;52.220;104.306;2023-03-20T03:17:06;94957.63;;;9.15;32.77
68141;BME280;54941;52.220;104.306;2023-03-20T03:19:35;94971.16;;;7.43;35.23
68141;BME280;54941;52.220;104.306;2023-03-20T03:22:03;94961.31;;;9.36;32.30
68141;BME280;54941;52.220;104.306;2023-03-20T03:24:32;94966.88;;;8.88;33.55
68141;BME280;54941;52.220;104.306;2023-03-20T03:27:00;94972.66;;;8.20;35.32
68141;BME280;54941;52.220;104.306;2023-03-20T03:29:33;94972.44;;;8.45;35.18
68141;BME280;54941;52.220;104.306;2023-03-20T03:32:03;94983.69;;;7.74;36.20
68141;BME280;54941;52.220;104.306;2023-03-20T03:34:31;94981.78;;;8.62;34.45
68141;BME280;54941;52.220;104.306;2023-03-20T03:37:01;94980.06;;;9.64;33.74
68141;BME280;54941;52.220;104.306;2023-03-20T03:39:35;94984.69;;;8.66;35.51
68141;BME280;54941;52.220;104.306;2023-03-20T03:42:07;94989.13;;;8.82;34.56
68141;BME280;54941;52.220;104.306;2023-03-20T03:44:40;94992.81;;;8.86;35.38
68141;BME280;54941;52.220;104.306;2023-03-20T03:47:10;95005.91;;;8.61;35.70
68141;BME280;54941;52.220;104.306;2023-03-20T03:49:41;95008.59;;;7.97;36.26
68141;BME280;54941;52.220;104.306;2023-03-20T03:52:10;94986.63;;;9.27;35.48
68141;BME280;54941;52.220;104.306;2023-03-20T03:54:43;95007.72;;;8.61;36.69
68141;BME280;54941;52.220;104.306;2023-03-20T03:57:12;94997.69;;;7.60;38.79
68141;BME280;54941;52.220;104.306;2023-03-20T03:59:43;95027.31;;;7.97;38.31
68141;BME280;54941;52.220;104.306;2023-03-20T04:02:13;95037.03;;;8.07;39.19
68141;BME280;54941;52.220;104.306;2023-03-20T04:04:42;95027.94;;;7.81;40.45
68141;BME280;54941;52.220;104.306;2023-03-20T04:07:12;95025.97;;;8.06;39.51
68141;BME280;54941;52.220;104.306;2023-03-20T04:09:40;95043.22;;;8.41;39.82
68141;BME280;54941;52.220;104.306;2023-03-20T04:12:32;95027.03;;;8.28;40.05
68141;BME280;54941;52.220;104.306;2023-03-20T04:14:59;95040.06;;;8.50;40.23
68141;BME280;54941;52.220;104.306;2023-03-20T04:17:26;95058.31;;;7.96;41.80
68141;BME280;54941;52.220;104.306;2023-03-20T04:19:52;95054.88;;;7.30;42.62
68141;BME280;54941;52.220;104.306;2023-03-20T04:22:19;95065.00;;;7.85;41.55
68141;BME280;54941;52.220;104.306;2023-03-20T04:24:46;95052.56;;;7.11;43.48
68141;BME280;54941;52.220;104.306;2023-03-20T04:27:13;95063.59;;;6.75;45.09
68141;BME280;54941;52.220;104.306;2023-03-20T04:29:39;95065.22;;;6.88;44.86
68141;BME280;54941;52.220;104.306;2023-03-20T04:32:06;95062.09;;;7.22;43.86
68141;BME280;54941;52.220;104.306;2023-03-20T04:34:32;95079.78;;;7.42;43.94
68141;BME280;54941;52.220;104.306;2023-03-20T04:36:59;95076.13;;;7.19;44.46
68141;BME280;54941;52.220;104.306;2023-03-20T04:39:25;95075.13;;;7.02;45.03
68141;BME280;54941;52.220;104.306;2023-03-20T04:41:53;95087.63;;;7.10;44.45
68141;BME280;54941;52.220;104.306;2023-03-20T04:44:20;95090.84;;;5.95;47.09
68141;BME280;54941;52.220;104.306;2023-03-20T04:46:46;95102.66;;;5.96;47.28
68141;BME280;54941;52.220;104.306;2023-03-20T04:49:12;95101.34;;;5.87;47.34
68141;BME280;54941;52.220;104.306;2023-03-20T04:51:39;95104.56;;;5.69;48.00
68141;BME280;54941;52.220;104.306;2023-03-20T04:54:07;95085.31;;;5.29;48.85
68141;BME280;54941;52.220;104.306;2023-03-20T04:56:33;95103.50;;;5.46;48.44
68141;BME280;54941;52.220;104.306;2023-03-20T04:59:01;95111.06;;;5.27;49.20
68141;BME280;54941;52.220;104.306;2023-03-20T05:01:27;95104.56;;;5.25;49.29
68141;BME280;54941;52.220;104.306;2023-03-20T05:03:54;95108.78;;;5.51;49.40
68141;BME280;54941;52.220;104.306;2023-03-20T05:06:20;95109.47;;;5.71;49.68
68141;BME280;54941;52.220;104.306;2023-03-20T05:08:46;95114.09;;;5.49;49.60
68141;BME280;54941;52.220;104.306;2023-03-20T05:11:13;95119.59;;;5.02;50.94
68141;BME280;54941;52.220;104.306;2023-03-20T05:13:42;95117.78;;;5.15;50.45
68141;BME280;54941;52.220;104.306;2023-03-20T05:16:09;95147.00;;;5.26;50.90
68141;BME280;54941;52.220;104.306;2023-03-20T05:18:36;95136.25;;;5.17;50.80
68141;BME280;54941;52.220;104.306;2023-03-20T05:21:02;95149.78;;;5.18;51.81
68141;BME280;54941;52.220;104.306;2023-03-20T05:23:29;95148.66;;;5.01;51.57
68141;BME280;54941;52.220;104.306;2023-03-20T05:25:55;95156.72;;;5.04;53.19
68141;BME280;54941;52.220;104.306;2023-03-20T05:28:22;95139.41;;;5.13;51.53
68141;BME280;54941;52.220;104.306;2023-03-20T05:30:48;95153.78;;;5.01;51.49
68141;BME280;54941;52.220;104.306;2023-03-20T05:33:16;95158.91;;;4.87;52.53
68141;BME280;54941;52.220;104.306;2023-03-20T05:35:43;95177.59;;;4.62;54.09
68141;BME280;54941;52.220;104.306;2023-03-20T05:38:09;95169.84;;;5.21;52.69
68141;BME280;54941;52.220;104.306;2023-03-20T05:40:35;95169.06;;;5.20;51.84
68141;BME280;54941;52.220;104.306;2023-03-20T05:43:02;95171.25;;;4.97;52.33
68141;BME280;54941;52.220;104.306;2023-03-20T05:45:30;95154.22;;;4.45;52.99
68141;BME280;54941;52.220;104.306;2023-03-20T05:47:57;95179.16;;;4.50;53.62
68141;BME280;54941;52.220;104.306;2023-03-20T05:50:25;95183.25;;;4.44;54.33
68141;BME280;54941;52.220;104.306;2023-03-20T05:52:52;95183.25;;;4.24;54.92
68141;BME280;54941;52.220;104.306;2023-03-20T05:55:18;95176.72;;;3.96;56.00
68141;BME280;54941;52.220;104.306;2023-03-20T05:57:45;95155.38;;;4.03;55.54
68141;BME280;54941;52.220;104.306;2023-03-20T06:00:14;95184.94;;;3.30;58.37
68141;BME280;54941;52.220;104.306;2023-03-20T06:02:40;95190.94;;;3.64;57.51
68141;BME280;54941;52.220;104.306;2023-03-20T06:05:09;95193.91;;;3.67;58.07
68141;BME280;54941;52.220;104.306;2023-03-20T06:07:37;95196.34;;;3.95;56.90
68141;BME280;54941;52.220;104.306;2023-03-20T06:10:04;95187.28;;;3.79;57.71
68141;BME280;54941;52.220;104.306;2023-03-20T06:12:30;95198.38;;;3.59;58.72
68141;BME280;54941;52.220;104.306;2023-03-20T06:14:57;95209.31;;;3.53;59.35
68141;BME280;54941;52.220;104.306;2023-03-20T06:17:25;95214.41;;;3.53;59.49
68141;BME280;54941;52.220;104.306;2023-03-20T06:19:53;95229.78;;;3.72;59.57
68141;BME280;54941;52.220;104.306;2023-03-20T06:22:19;95228.84;;;3.05;61.94
68141;BME280;54941;52.220;104.306;2023-03-20T06:24:47;95240.13;;;3.23;61.57
68141;BME280;54941;52.220;104.306;2023-03-20T06:27:14;95245.09;;;3.04;62.97
68141;BME280;54941;52.220;104.306;2023-03-20T06:29:40;95243.63;;;2.67;63.70
68141;BME280;54941;52.220;104.306;2023-03-20T06:32:06;95270.00;;;2.38;65.01
68141;BME280;54941;52.220;104.306;2023-03-20T06:34:33;95271.88;;;2.72;65.58
68141;BME280;54941;52.220;104.306;2023-03-20T06:36:59;95278.78;;;2.00;67.27
68141;BME280;54941;52.220;104.306;2023-03-20T06:39:26;95266.53;;;2.24;67.07
68141;BME280;54941;52.220;104.306;2023-03-20T06:41:54;95282.06;;;2.15;67.51
68141;BME280;54941;52.220;104.306;2023-03-20T06:44:20;95273.53;;;2.22;67.95
68141;BME280;54941;52.220;104.306;2023-03-20T06:46:47;95278.44;;;2.03;68.70
68141;BME280;54941;52.220;104.306;2023-03-20T06:49:13;95274.63;;;1.77;69.76
68141;BME280;54941;52.220;104.306;2023-03-20T06:51:39;95280.97;;;2.03;69.82
68141;BME280;54941;52.220;104.306;2023-03-20T06:54:06;95295.81;;;1.84;70.09
68141;BME280;54941;52.220;104.306;2023-03-20T06:56:32;95302.66;;;1.69;71.00
68141;BME280;54941;52.220;104.306;2023-03-20T06:59:00;95302.31;;;1.58;72.00
68141;BME280;54941;52.220;104.306;2023-03-20T07:01:27;95310.94;;;1.19;74.25
68141;BME280;54941;52.220;104.306;2023-03-20T07:03:53;95314.63;;;1.31;75.11
68141;BME280;54941;52.220;104.306;2023-03-20T07:06:19;95317.56;;;1.06;76.34
68141;BME280;54941;52.220;104.306;2023-03-20T07:08:46;95323.84;;;0.95;78.39
68141;BME280;54941;52.220;104.306;2023-03-20T07:11:12;95316.53;;;1.15;78.35
68141;BME280;54941;52.220;104.306;2023-03-20T07:13:39;95320.63;;;1.01;78.39
68141;BME280;54941;52.220;104.306;2023-03-20T07:16:08;95337.53;;;1.09;79.60
68141;BME280;54941;52.220;104.306;2023-03-20T07:18:34;95337.72;;;0.62;80.62
68141;BME280;54941;52.220;104.306;2023-03-20T07:21:02;95357.22;;;0.84;80.38
68141;BME280;54941;52.220;104.306;2023-03-20T07:23:28;95362.63;;;0.58;81.98
68141;BME280;54941;52.220;104.306;2023-03-20T07:25:55;95356.13;;;0.78;81.75
68141;BME280;54941;52.220;104.306;2023-03-20T07:28:21;95355.88;;;0.73;80.84
68141;BME280;54941;52.220;104.306;2023-03-20T07:30:48;95342.84;;;0.76;80.35
68141;BME280;54941;52.220;104.306;2023-03-20T07:33:16;95347.97;;;0.68;79.38
68141;BME280;54941;52.220;104.306;2023-03-20T07:35:42;95361.75;;;0.12;83.27
68141;BME280;54941;52.220;104.306;2023-03-20T07:38:09;95355.28;;;0.10;85.32
68141;BME280;54941;52.220;104.306;2023-03-20T07:40:35;95367.59;;;0.21;86.22
68141;BME280;54941;52.220;104.306;2023-03-20T07:43:01;95356.88;;;0.11;86.97
68141;BME280;54941;52.220;104.306;2023-03-20T07:45:28;95387.97;;;0.27;86.75
68141;BME280;54941;52.220;104.306;2023-03-20T07:47:54;95389.03;;;0.02;86.53
68141;BME280;54941;52.220;104.306;2023-03-20T07:50:22;95388.78;;;-0.11;86.36
68141;BME280;54941;52.220;104.306;2023-03-20T07:52:49;95385.28;;;-0.10;86.97
68141;BME280;54941;52.220;104.306;2023-03-20T07:55:15;95399.25;;;0.25;85.78
68141;BME280;54941;52.220;104.306;2023-03-20T07:57:42;95404.44;;;0.31;84.42
68141;BME280;54941;52.220;104.306;2023-03-20T08:00:10;95389.84;;;0.33;82.97
68141;BME280;54941;52.220;104.306;2023-03-20T08:02:36;95396.78;;;0.39;81.82
68141;BME280;54941;52.220;104.306;2023-03-20T08:05:02;95402.34;;;0.35;80.39
68141;BME280;54941;52.220;104.306;2023-03-20T08:07:33;95403.84;;;0.21;78.24
68141;BME280;54941;52.220;104.306;2023-03-20T08:09:59;95418.28;;;0.13;76.96
68141;BME280;54941;52.220;104.306;2023-03-20T08:12:26;95407.91;;;0.30;76.77
68141;BME280;54941;52.220;104.306;2023-03-20T08:14:52;95420.25;;;0.33;74.50
68141;BME280;54941;52.220;104.306;2023-03-20T08:17:18;95406.66;;;0.26;73.85
68141;BME280;54941;52.220;104.306;2023-03-20T08:19:47;95420.44;;;-0.15;74.55
68141;BME280;54941;52.220;104.306;2023-03-20T08:22:13;95427.94;;;0.09;74.27
68141;BME280;54941;52.220;104.306;2023-03-20T08:24:44;95429.28;;;-0.11;75.26
68141;BME280;54941;52.220;104.306;2023-03-20T08:27:11;95446.03;;;-0.02;75.42
68141;BME280;54941;52.220;104.306;2023-03-20T08:29:37;95445.72;;;-0.07;75.44
68141;BME280;54941;52.220;104.306;2023-03-20T08:32:04;95434.66;;;-0.14;75.04
68141;BME280;54941;52.220;104.306;2023-03-20T08:34:30;95420.13;;;-0.20;76.15
68141;BME280;54941;52.220;104.306;2023-03-20T08:36:57;95433.81;;;0.02;76.50
68141;BME280;54941;52.220;104.306;2023-03-20T08:39:26;95443.03;;;-0.06;75.91
68141;BME280;54941;52.220;104.306;2023-03-20T08:41:54;95457.97;;;-0.43;76.89
68141;BME280;54941;52.220;104.306;2023-03-20T08:44:20;95462.72;;;-0.56;77.24
68141;BME280;54941;52.220;104.306;2023-03-20T08:46:46;95467.31;;;-0.60;77.93
68141;BME280;54941;52.220;104.306;2023-03-20T08:49:13;95465.88;;;-0.70;77.39
68141;BME280;54941;52.220;104.306;2023-03-20T08:51:39;95475.53;;;-0.33;76.32
68141;BME280;54941;52.220;104.306;2023-03-20T08:54:06;95477.59;;;-0.53;76.22
68141;BME280;54941;52.220;104.306;2023-03-20T08:56:33;95483.41;;;-0.36;75.33
68141;BME280;54941;52.220;104.306;2023-03-20T08:59:01;95486.59;;;-0.67;76.07
68141;BME280;54941;52.220;104.306;2023-03-20T09:01:27;95492.63;;;-0.60;76.16
68141;BME280;54941;52.220;104.306;2023-03-20T09:03:53;95488.47;;;-0.69;77.35
68141;BME280;54941;52.220;104.306;2023-03-20T09:06:20;95506.59;;;-1.06;79.38
68141;BME280;54941;52.220;104.306;2023-03-20T09:08:46;95515.75;;;-1.13;78.44
68141;BME280;54941;52.220;104.306;2023-03-20T09:11:15;95501.88;;;-1.01;78.06
68141;BME280;54941;52.220;104.306;2023-03-20T09:13:42;95510.56;;;-0.95;77.47
68141;BME280;54941;52.220;104.306;2023-03-20T09:16:10;95534.25;;;-1.12;79.72
68141;BME280;54941;52.220;104.306;2023-03-20T09:18:36;95531.78;;;-1.38;80.23
68141;BME280;54941;52.220;104.306;2023-03-20T09:21:03;95547.53;;;-1.44;81.05
68141;BME280;54941;52.220;104.306;2023-03-20T09:23:29;95537.53;;;-1.20;81.37
68141;BME280;54941;52.220;104.306;2023-03-20T09:25:59;95548.41;;;-1.27;81.24
68141;BME280;54941;52.220;104.306;2023-03-20T09:28:25;95539.03;;;-1.01;81.33
68141;BME280;54941;52.220;104.306;2023-03-20T09:30:56;95548.19;;;-0.92;80.12
68141;BME280;54941;52.220;104.306;2023-03-20T09:33:25;95546.44;;;-1.00;78.46
68141;BME280;54941;52.220;104.306;2023-03-20T09:35:53;95558.41;;;-1.10;77.36
68141;BME280;54941;52.220;104.306;2023-03-20T09:38:20;95547.44;;;-0.76;75.51
68141;BME280;54941;52.220;104.306;2023-03-20T09:40:51;95564.22;;;-0.59;72.58
68141;BME280;54941;52.220;104.306;2023-03-20T09:43:31;95572.94;;;-0.54;70.53
68141;BME280;54941;52.220;104.306;2023-03-20T09:46:12;95562.19;;;-0.64;70.89
68141;BME280;54941;52.220;104.306;2023-03-20T09:48:47;95585.09;;;-0.65;69.70
68141;BME280;54941;52.220;104.306;2023-03-20T09:51:20;95581.84;;;-1.00;69.46
68141;BME280;54941;52.220;104.306;2023-03-20T09:53:53;95581.84;;;-1.00;68.80
68141;BME280;54941;52.220;104.306;2023-03-20T09:56:24;95589.22;;;-1.14;69.29
68141;BME280;54941;52.220;104.306;2023-03-20T09:58:53;95592.22;;;-1.19;69.35
68141;BME280;54941;52.220;104.306;2023-03-20T10:01:23;95600.41;;;-1.17;69.01
68141;BME280;54941;52.220;104.306;2023-03-20T10:03:56;95586.19;;;-1.18;68.49
68141;BME280;54941;52.220;104.306;2023-03-20T10:06:23;95593.63;;;-1.16;68.75
68141;BME280;54941;52.220;104.306;2023-03-20T10:08:50;95594.56;;;-1.17;69.00
68141;BME280;54941;52.220;104.306;2023-03-20T10:11:36;95603.53;;;-1.31;68.08
68141;BME280;54941;52.220;104.306;2023-03-20T10:14:17;95617.00;;;-1.22;67.45
68141;BME280;54941;52.220;104.306;2023-03-20T10:16:58;95621.53;;;-1.60;68.85
68141;BME280;54941;52.220;104.306;2023-03-20T10:19:29;95618.81;;;-1.32;67.96
68141;BME280;54941;52.220;104.306;2023-03-20T10:22:06;95631.00;;;-1.28;66.89
68141;BME280;54941;52.220;104.306;2023-03-20T10:24:39;95628.19;;;-1.25;67.19
68141;BME280;54941;52.220;104.306;2023-03-20T10:27:13;95641.72;;;-1.34;65.63
68141;BME280;54941;52.220;104.306;2023-03-20T10:29:48;95642.81;;;-1.62;65.50
68141;BME280;54941;52.220;104.306;2023-03-20T10:32:19;95651.03;;;-1.60;65.01
68141;BME280;54941;52.220;104.306;2023-03-20T10:35:10;95666.84;;;-1.58;64.62
68141;BME280;54941;52.220;104.306;2023-03-20T10:38:02;95677.69;;;-1.83;65.74
68141;BME280;54941;52.220;104.306;2023-03-20T10:40:31;95691.91;;;-1.82;66.15
68141;BME280;54941;52.220;104.306;2023-03-20T10:43:01;95694.75;;;-1.85;67.19
68141;BME280;54941;52.220;104.306;2023-03-20T10:45:35;95711.03;;;-1.98;67.61
68141;BME280;54941;52.220;104.306;2023-03-20T10:48:08;95725.88;;;-2.30;68.38
68141;BME280;54941;52.220;104.306;2023-03-20T10:50:42;95722.75;;;-2.41;68.58
68141;BME280;54941;52.220;104.306;2023-03-20T10:53:19;95737.72;;;-2.67;70.01
68141;BME280;54941;52.220;104.306;2023-03-20T10:55:45;95731.69;;;-2.84;71.42
68141;BME280;54941;52.220;104.306;2023-03-20T10:58:20;95745.63;;;-2.53;72.13
68141;BME280;54941;52.220;104.306;2023-03-20T11:00:47;95739.16;;;-2.55;72.32
68141;BME280;54941;52.220;104.306;2023-03-20T11:03:20;95762.56;;;-2.72;73.74
68141;BME280;54941;52.220;104.306;2023-03-20T11:05:51;95766.28;;;-2.76;74.20
68141;BME280;54941;52.220;104.306;2023-03-20T11:08:21;95774.13;;;-2.79;74.92
68141;BME280;54941;52.220;104.306;2023-03-20T11:10:57;95761.41;;;-2.78;75.70
68141;BME280;54941;52.220;104.306;2023-03-20T11:13:26;95785.81;;;-2.88;76.51
68141;BME280;54941;52.220;104.306;2023-03-20T11:15:55;95789.94;;;-2.87;76.95
68141;BME280;54941;52.220;104.306;2023-03-20T11:18:24;95788.81;;;-3.12;78.15
68141;BME280;54941;52.220;104.306;2023-03-20T11:20:54;95795.81;;;-3.06;79.18
68141;BME280;54941;52.220;104.306;2023-03-20T11:23:25;95807.38;;;-3.13;78.71
68141;BME280;54941;52.220;104.306;2023-03-20T11:25:56;95816.41;;;-3.29;79.47
68141;BME280;54941;52.220;104.306;2023-03-20T11:28:29;95811.75;;;-3.15;79.66
68141;BME280;54941;52.220;104.306;2023-03-20T11:30:58;95829.53;;;-3.35;80.71
68141;BME280;54941;52.220;104.306;2023-03-20T11:33:26;95845.44;;;-3.25;81.60
68141;BME280;54941;52.220;104.306;2023-03-20T11:35:56;95846.63;;;-3.20;82.34
68141;BME280;54941;52.220;104.306;2023-03-20T11:38:24;95856.19;;;-3.52;82.60
68141;BME280;54941;52.220;104.306;2023-03-20T11:40:51;95861.84;;;-3.50;82.59
68141;BME280;54941;52.220;104.306;2023-03-20T11:43:19;95866.91;;;-3.60;83.83
68141;BME280;54941;52.220;104.306;2023-03-20T11:45:48;95874.72;;;-3.63;83.73
68141;BME280;54941;52.220;104.306;2023-03-20T11:48:18;95883.19;;;-3.73;84.24
68141;BME280;54941;52.220;104.306;2023-03-20T11:50:58;95878.09;;;-3.83;84.75
68141;BME280;54941;52.220;104.306;2023-03-20T11:53:29;95871.47;;;-3.84;83.81
68141;BME280;54941;52.220;104.306;2023-03-20T11:56:03;95900.09;;;-3.85;83.95
68141;BME280;54941;52.220;104.306;2023-03-20T11:58:32;95906.97;;;-3.87;84.91
68141;BME280;54941;52.220;104.306;2023-03-20T12:01:03;95916.66;;;-3.92;84.81
68141;BME280;54941;52.220;104.306;2023-03-20T12:03:40;95921.06;;;-4.05;84.41
68141;BME280;54941;52.220;104.306;2023-03-20T12:06:09;95929.53;;;-4.06;84.34
68141;BME280;54941;52.220;104.306;2023-03-20T12:08:54;95942.81;;;-4.04;82.99
68141;BME280;54941;52.220;104.306;2023-03-20T12:11:46;95943.91;;;-4.48;82.61
68141;BME280;54941;52.220;104.306;2023-03-20T12:14:22;95953.16;;;-4.49;83.68
68141;BME280;54941;52.220;104.306;2023-03-20T12:16:54;95965.75;;;-4.49;83.84
68141;BME280;54941;52.220;104.306;2023-03-20T12:19:26;95963.47;;;-4.52;83.43
68141;BME280;54941;52.220;104.306;2023-03-20T12:22:00;95980.75;;;-4.58;84.41
68141;BME280;54941;52.220;104.306;2023-03-20T12:24:36;95985.53;;;-4.55;84.08
68141;BME280;54941;52.220;104.306;2023-03-20T12:27:17;96003.19;;;-4.66;84.81
68141;BME280;54941;52.220;104.306;2023-03-20T12:29:49;96008.84;;;-4.85;86.24
68141;BME280;54941;52.220;104.306;2023-03-20T12:32:22;96018.13;;;-4.65;86.08
68141;BME280;54941;52.220;104.306;2023-03-20T12:34:55;96030.28;;;-4.70;87.09
68141;BME280;54941;52.220;104.306;2023-03-20T12:37:23;96037.06;;;-4.81;86.34
68141;BME280;54941;52.220;104.306;2023-03-20T12:39:53;96047.16;;;-4.93;86.61
68141;BME280;54941;52.220;104.306;2023-03-20T12:42:28;96046.81;;;-4.99;85.32
68141;BME280;54941;52.220;104.306;2023-03-20T12:45:03;96026.75;;;-5.10;84.68
68141;BME280;54941;52.220;104.306;2023-03-20T12:48:11;96052.22;;;-5.15;84.37
68141;BME280;54941;52.220;104.306;2023-03-20T12:50:41;96030.97;;;-5.11;83.66
68141;BME280;54941;52.220;104.306;2023-03-20T12:53:28;96067.06;;;-5.23;83.15
68141;BME280;54941;52.220;104.306;2023-03-20T12:56:10;96064.78;;;-5.15;83.40
68141;BME280;54941;52.220;104.306;2023-03-20T12:58:45;96087.34;;;-5.04;83.26
68141;BME280;54941;52.220;104.306;2023-03-20T13:01:17;96105.28;;;-5.30;83.45
68141;BME280;54941;52.220;104.306;2023-03-20T13:03:59;96088.06;;;-5.24;83.14
68141;BME280;54941;52.220;104.306;2023-03-20T13:06:38;96081.66;;;-5.61;83.06